Time;durP1;ratioP1;P1;durP2;ratioP2;P2;SDS_P1;SDS_P2;PMS_P1;PMS_P2;Temp;Humidity;BMP_temperature;BMP_pressure;BME280_temperature;BME280_humidity;BME280_pressure;Samples;Min_cycle;Max_cycle;Signal;HPM_P1;HPM_P2
2022/08/05 00:01:57;;;;;;;5.50;2.10;;;18.80;99.90;;;;;;5065391;28;20072;-83
2022/08/05 00:04:24;;;;;;;3.22;1.80;;;18.80;99.90;;;;;;5062124;28;20388;-83
2022/08/05 00:06:50;;;;;;;3.88;2.08;;;18.80;99.90;;;;;;5097490;27;20125;-83
2022/08/05 00:09:16;;;;;;;6.25;2.03;;;18.80;99.90;;;;;;5061146;28;20503;-83
2022/08/05 00:11:41;;;;;;;5.65;2.13;;;18.80;99.90;;;;;;5063159;28;20041;-83
2022/08/05 00:14:07;;;;;;;6.78;2.78;;;18.80;99.90;;;;;;5063621;28;20099;-83
2022/08/05 00:16:33;;;;;;;7.35;2.47;;;18.80;99.90;;;;;;5065074;28;20754;-83
2022/08/05 00:18:58;;;;;;;10.15;3.65;;;18.90;99.90;;;;;;5066151;28;20036;-84
2022/08/05 00:21:24;;;;;;;86.75;10.48;;;18.90;99.90;;;;;;5065049;28;20056;-81
2022/08/05 00:23:50;;;;;;;29.30;6.00;;;18.70;99.90;;;;;;5064536;28;20652;-79
2022/08/05 00:26:16;;;;;;;18.65;4.00;;;18.60;99.90;;;;;;5068782;28;20581;-78
2022/08/05 00:28:42;;;;;;;8.48;2.78;;;18.70;99.90;;;;;;5067759;28;20055;-77
2022/08/05 00:31:13;;;;;;;18.70;3.60;;;18.60;99.90;;;;;;5062484;28;20553;-77
2022/08/05 00:33:38;;;;;;;8.90;2.67;;;18.60;99.90;;;;;;5067204;28;20040;-77
2022/08/05 00:36:04;;;;;;;6.93;2.72;;;18.50;99.90;;;;;;5053648;28;20037;-77
2022/08/05 00:38:30;;;;;;;11.20;3.35;;;18.60;99.90;;;;;;5068469;28;20078;-77
2022/08/05 00:41:00;;;;;;;6.68;2.72;;;18.60;99.90;;;;;;5067300;28;20049;-78
2022/08/05 00:43:27;;;;;;;9.70;2.75;;;18.60;99.90;;;;;;5064717;28;20671;-78
2022/08/05 00:45:53;;;;;;;7.25;2.30;;;18.60;99.90;;;;;;5065112;28;20124;-77
2022/08/05 00:48:21;;;;;;;5.05;3.22;;;18.50;99.90;;;;;;5064784;28;20418;-77
2022/08/05 00:50:49;;;;;;;9.52;3.50;;;18.50;99.90;;;;;;5063876;28;20144;-77
2022/08/05 00:53:17;;;;;;;7.05;3.00;;;18.60;99.90;;;;;;5064137;28;20483;-77
2022/08/05 00:55:43;;;;;;;60.40;7.03;;;18.60;99.90;;;;;;5063701;28;20041;-76
2022/08/05 00:58:13;;;;;;;10.52;3.22;;;18.50;99.90;;;;;;5063207;28;20040;-76
2022/08/05 01:00:39;;;;;;;8.13;4.68;;;18.40;99.90;;;;;;5063333;28;20045;-76
2022/08/05 01:03:05;;;;;;;6.50;3.15;;;18.40;99.90;;;;;;5079603;28;20141;-76
2022/08/05 01:05:31;;;;;;;5.55;3.05;;;18.30;99.90;;;;;;5065468;28;20044;-75
2022/08/05 01:07:57;;;;;;;8.82;3.28;;;18.30;99.90;;;;;;5066479;28;20049;-75
2022/08/05 01:10:29;;;;;;;10.05;2.58;;;18.30;99.90;;;;;;5066135;28;20041;-75
2022/08/05 01:13:00;;;;;;;6.93;2.47;;;18.40;99.90;;;;;;5073312;28;20072;-76
2022/08/05 01:15:32;;;;;;;3.30;2.10;;;18.40;99.90;;;;;;5071829;28;20044;-76
2022/08/05 01:18:05;;;;;;;4.90;2.63;;;18.40;99.90;;;;;;5073327;28;20075;-77
2022/08/05 01:20:52;;;;;;;6.28;2.45;;;18.30;99.90;;;;;;5071666;28;20053;-76
2022/08/05 01:23:37;;;;;;;9.63;2.58;;;18.30;99.90;;;;;;5074392;28;20029;-75
2022/08/05 01:26:37;;;;;;;7.70;2.67;;;18.30;99.90;;;;;;5074699;28;20037;-76
2022/08/05 01:29:09;;;;;;;5.70;2.47;;;18.20;99.90;;;;;;5073219;28;20091;-76
2022/08/05 01:31:44;;;;;;;6.00;3.20;;;18.20;99.90;;;;;;5074296;28;20052;-77
2022/08/05 01:34:21;;;;;;;53.05;6.30;;;18.20;99.90;;;;;;5069317;28;20067;-75
2022/08/05 01:36:54;;;;;;;13.23;3.38;;;18.20;99.90;;;;;;5065370;28;20041;-75
2022/08/05 01:39:21;;;;;;;6.65;2.83;;;18.20;99.90;;;;;;5066609;28;20065;-75
2022/08/05 01:41:48;;;;;;;5.45;3.17;;;18.20;99.90;;;;;;5067740;28;20049;-75
2022/08/05 01:44:15;;;;;;;11.00;3.15;;;18.20;99.90;;;;;;5065651;28;20036;-76
2022/08/05 01:46:43;;;;;;;8.48;3.13;;;18.20;99.90;;;;;;5065004;28;20110;-76
2022/08/05 01:49:12;;;;;;;4.75;2.60;;;18.10;99.90;;;;;;5064236;28;20527;-77
2022/08/05 01:51:39;;;;;;;7.30;3.03;;;18.20;99.90;;;;;;5065503;28;20041;-78
2022/08/05 01:54:07;;;;;;;5.60;2.90;;;18.10;99.90;;;;;;5068144;28;20032;-77
2022/08/05 01:56:38;;;;;;;8.80;3.17;;;18.10;99.90;;;;;;5067251;28;20052;-78
2022/08/05 01:59:07;;;;;;;9.63;2.78;;;18.10;99.90;;;;;;5100061;27;20187;-78
2022/08/05 02:01:34;;;;;;;7.38;3.03;;;18.20;99.90;;;;;;5066214;28;20040;-77
2022/08/05 02:04:01;;;;;;;7.55;2.95;;;18.20;99.90;;;;;;5065169;28;20037;-77
2022/08/05 02:06:27;;;;;;;9.48;3.33;;;18.10;99.90;;;;;;5063259;28;20043;-78
2022/08/05 02:08:54;;;;;;;5.55;3.33;;;18.10;99.90;;;;;;5010597;28;1576659;-77
2022/08/05 02:11:21;;;;;;;5.95;2.85;;;18.10;99.90;;;;;;5064854;28;20033;-77
2022/08/05 02:13:59;;;;;;;5.78;2.95;;;18.10;99.90;;;;;;5063905;28;21960;-77
2022/08/05 02:16:44;;;;;;;5.35;2.78;;;18.10;99.90;;;;;;5062541;28;20037;-76
2022/08/05 02:19:18;;;;;;;5.43;3.67;;;18.10;99.90;;;;;;5065667;28;20051;-77
2022/08/05 02:21:50;;;;;;;8.63;3.33;;;18.10;99.90;;;;;;5064874;28;20037;-77
2022/08/05 02:24:19;;;;;;;9.00;3.03;;;18.10;99.90;;;;;;5063061;28;20044;-77
2022/08/05 02:26:49;;;;;;;8.70;3.60;;;18.10;99.90;;;;;;5078144;28;20037;-77
2022/08/05 02:29:19;;;;;;;8.25;3.03;;;18.10;99.90;;;;;;5064441;28;20151;-76
2022/08/05 02:31:47;;;;;;;5.82;2.83;;;18.10;99.90;;;;;;5064974;28;20037;-77
2022/08/05 02:34:15;;;;;;;7.75;3.47;;;18.10;99.90;;;;;;5062619;28;20040;-77
2022/08/05 02:36:52;;;;;;;6.15;3.70;;;18.20;99.90;;;;;;5064771;28;20045;-77
2022/08/05 02:39:21;;;;;;;8.20;3.25;;;18.10;99.90;;;;;;5063098;28;20160;-77
2022/08/05 02:41:48;;;;;;;6.60;2.88;;;18.10;99.90;;;;;;5064940;28;20102;-77
2022/08/05 02:44:14;;;;;;;6.85;2.55;;;18.10;99.90;;;;;;5063346;28;20132;-77
2022/08/05 02:46:43;;;;;;;7.10;2.78;;;18.10;99.90;;;;;;5065804;28;20110;-76
2022/08/05 02:49:10;;;;;;;6.05;3.17;;;18.10;99.90;;;;;;5096021;27;20094;-77
2022/08/05 02:51:37;;;;;;;6.95;3.15;;;18.10;99.90;;;;;;5064867;28;20044;-77
2022/08/05 02:54:05;;;;;;;9.95;3.30;;;18.10;99.90;;;;;;5063648;28;20032;-77
2022/08/05 02:56:33;;;;;;;8.50;4.32;;;18.00;99.90;;;;;;5064706;28;20167;-77
2022/08/05 02:58:59;;;;;;;7.68;3.60;;;18.00;99.90;;;;;;5047522;28;20048;-76
2022/08/05 03:01:27;;;;;;;4.78;2.80;;;18.20;99.90;;;;;;5064322;28;20119;-77
2022/08/05 03:03:57;;;;;;;5.93;3.80;;;18.20;99.90;;;;;;5061728;28;20048;-77
2022/08/05 03:06:24;;;;;;;8.60;3.30;;;18.30;99.90;;;;;;5061877;28;20049;-77
2022/08/05 03:08:51;;;;;;;9.30;3.47;;;18.30;99.90;;;;;;5063568;28;20073;-77
2022/08/05 03:11:24;;;;;;;10.90;3.58;;;18.30;99.90;;;;;;5064019;28;20052;-77
2022/08/05 03:13:51;;;;;;;6.30;3.90;;;18.30;99.90;;;;;;5062602;28;20092;-77
2022/08/05 03:16:17;;;;;;;4.95;3.55;;;18.30;99.90;;;;;;5066632;28;20103;-77
2022/08/05 03:18:44;;;;;;;13.10;3.47;;;18.20;99.90;;;;;;5065500;28;20831;-77
2022/08/05 03:21:09;;;;;;;6.32;3.05;;;18.20;99.90;;;;;;5063764;28;20624;-77
2022/08/05 03:23:38;;;;;;;6.57;3.70;;;18.20;99.90;;;;;;5060776;28;20044;-77
2022/08/05 03:26:04;;;;;;;9.15;3.55;;;18.20;99.90;;;;;;5064245;28;20577;-77
2022/08/05 03:28:30;;;;;;;10.20;4.57;;;18.20;99.90;;;;;;5062756;28;20048;-77
2022/08/05 03:30:58;;;;;;;7.15;2.92;;;18.10;99.90;;;;;;5066400;28;20462;-77
2022/08/05 03:33:26;;;;;;;7.40;2.50;;;18.10;99.90;;;;;;5065407;28;20151;-77
2022/08/05 03:35:54;;;;;;;7.03;2.88;;;18.10;99.90;;;;;;5063871;28;20040;-77
2022/08/05 03:38:21;;;;;;;5.68;2.90;;;18.00;99.90;;;;;;5064505;28;20044;-77
2022/08/05 03:40:47;;;;;;;9.73;2.95;;;18.00;99.90;;;;;;5064331;28;20049;-77
2022/08/05 03:43:13;;;;;;;9.98;3.15;;;18.00;99.90;;;;;;5066615;28;20037;-76
2022/08/05 03:45:39;;;;;;;9.25;3.30;;;18.00;99.90;;;;;;5065266;28;20029;-76
2022/08/05 03:48:05;;;;;;;7.13;3.53;;;17.90;99.90;;;;;;5060807;28;20087;-77
2022/08/05 03:50:54;;;;;;;8.57;2.80;;;18.00;99.90;;;;;;5064097;28;20044;-77
2022/08/05 03:53:42;;;;;;;6.95;2.55;;;18.00;99.90;;;;;;5060717;28;20477;-76
2022/08/05 03:56:27;;;;;;;7.65;2.92;;;18.00;99.90;;;;;;5095876;27;20044;-77
2022/08/05 03:58:56;;;;;;;9.60;2.58;;;18.00;99.90;;;;;;5062122;28;20096;-76
2022/08/05 04:01:24;;;;;;;13.45;2.85;;;18.00;99.90;;;;;;5077765;28;20049;-77
2022/08/05 04:03:51;;;;;;;5.30;2.42;;;18.00;99.90;;;;;;5060976;28;20045;-77
2022/08/05 04:06:18;;;;;;;9.10;2.95;;;18.00;99.90;;;;;;5063375;28;20079;-77
2022/08/05 04:08:45;;;;;;;8.82;2.20;;;17.90;99.90;;;;;;5064838;28;20052;-77
2022/08/05 04:11:11;;;;;;;6.53;2.72;;;17.90;99.90;;;;;;5064556;28;20124;-77
2022/08/05 04:13:41;;;;;;;10.38;2.40;;;17.90;99.90;;;;;;5062698;28;20052;-77
2022/08/05 04:16:08;;;;;;;8.57;2.50;;;17.90;99.90;;;;;;5061963;28;20060;-76
2022/08/05 04:18:34;;;;;;;5.20;2.08;;;18.00;99.90;;;;;;5063215;28;20088;-77
2022/08/05 04:21:01;;;;;;;3.42;2.17;;;17.90;99.90;;;;;;5077399;28;20103;-77
2022/08/05 04:23:28;;;;;;;11.85;2.88;;;18.00;99.90;;;;;;5064390;28;20044;-76
2022/08/05 04:25:53;;;;;;;7.07;2.63;;;18.00;99.90;;;;;;5059728;28;20048;-77
2022/08/05 04:28:20;;;;;;;6.28;2.50;;;18.00;99.90;;;;;;5061549;28;20098;-77
2022/08/05 04:30:47;;;;;;;5.82;2.00;;;18.00;99.90;;;;;;5063159;28;21047;-77
2022/08/05 04:33:14;;;;;;;6.20;1.90;;;18.00;99.90;;;;;;5065221;28;20166;-77
2022/08/05 04:35:40;;;;;;;6.22;2.20;;;17.90;99.90;;;;;;5067120;28;20056;-78
2022/08/05 04:38:07;;;;;;;7.57;1.80;;;17.90;99.90;;;;;;5065116;28;20130;-77
2022/08/05 04:40:37;;;;;;;8.52;4.30;;;17.90;99.90;;;;;;5073779;28;20095;-76
2022/08/05 04:43:03;;;;;;;3.25;2.10;;;17.80;99.90;;;;;;5072010;28;20064;-77
2022/08/05 04:45:29;;;;;;;5.22;1.80;;;17.80;99.90;;;;;;5069639;28;20044;-77
2022/08/05 04:48:09;;;;;;;3.38;2.42;;;17.70;99.90;;;;;;5072190;28;20033;-77
2022/08/05 04:50:44;;;;;;;5.32;1.60;;;17.70;99.90;;;;;;5102782;27;20045;-77
2022/08/05 04:53:11;;;;;;;7.28;2.33;;;17.70;99.90;;;;;;5094632;27;20678;-76
2022/08/05 04:55:38;;;;;;;3.83;1.90;;;17.60;99.90;;;;;;5061129;28;20178;-77
2022/08/05 04:58:06;;;;;;;7.00;2.55;;;17.60;99.90;;;;;;5061088;28;20079;-77
2022/08/05 05:00:34;;;;;;;4.93;2.10;;;17.60;99.90;;;;;;5061226;28;20040;-75
2022/08/05 05:03:00;;;;;;;7.53;2.00;;;17.50;99.90;;;;;;5062268;28;20603;-76
2022/08/05 05:05:26;;;;;;;7.05;2.13;;;17.50;99.90;;;;;;5063516;28;20045;-78
2022/08/05 05:07:53;;;;;;;8.23;3.10;;;17.40;99.90;;;;;;5063723;28;20052;-78
2022/08/05 05:10:18;;;;;;;6.00;2.22;;;17.40;99.90;;;;;;5066203;28;20050;-77
2022/08/05 05:12:44;;;;;;;5.22;2.45;;;17.50;99.90;;;;;;5064151;28;20530;-75
2022/08/05 05:15:10;;;;;;;4.32;1.83;;;17.50;99.90;;;;;;5061225;28;20045;-75
2022/08/05 05:17:40;;;;;;;3.85;1.98;;;17.40;99.90;;;;;;5064416;28;20046;-75
2022/08/05 05:20:07;;;;;;;5.63;2.10;;;17.40;99.90;;;;;;5064208;28;20131;-76
2022/08/05 05:22:33;;;;;;;7.13;2.38;;;17.50;99.90;;;;;;5063412;28;20040;-76
2022/08/05 05:24:59;;;;;;;7.38;1.75;;;17.60;99.90;;;;;;5062237;28;20049;-77
2022/08/05 05:27:30;;;;;;;6.55;2.20;;;17.60;99.90;;;;;;5065274;28;20040;-76
2022/08/05 05:29:55;;;;;;;4.97;2.25;;;17.60;99.90;;;;;;5047948;28;20077;-74
2022/08/05 05:32:21;;;;;;;7.07;2.35;;;17.60;99.90;;;;;;5065627;28;20047;-76
2022/08/05 05:34:47;;;;;;;5.07;3.10;;;17.50;99.90;;;;;;5064692;28;20507;-76
2022/08/05 05:37:13;;;;;;;8.02;2.17;;;17.50;99.90;;;;;;5063024;28;20114;-76
2022/08/05 05:39:40;;;;;;;6.10;2.00;;;17.50;99.90;;;;;;5062630;28;20132;-76
2022/08/05 05:42:06;;;;;;;6.07;2.00;;;17.50;99.90;;;;;;5061732;28;20567;-76
2022/08/05 05:44:32;;;;;;;4.22;2.30;;;17.40;99.90;;;;;;5063888;28;20052;-75
2022/08/05 05:46:59;;;;;;;8.77;1.77;;;17.50;99.90;;;;;;5061341;28;20052;-75
2022/08/05 05:49:25;;;;;;;5.53;1.80;;;17.50;99.90;;;;;;5058694;28;20040;-76
2022/08/05 05:51:51;;;;;;;5.78;1.83;;;17.50;99.90;;;;;;5094217;27;20037;-77
2022/08/05 05:54:16;;;;;;;3.53;2.47;;;17.40;99.90;;;;;;5056698;28;20511;-76
2022/08/05 05:56:42;;;;;;;4.20;2.22;;;17.40;99.90;;;;;;5062393;28;20586;-77
2022/08/05 05:59:08;;;;;;;5.95;2.30;;;17.50;99.90;;;;;;5062036;28;20127;-77
2022/08/05 06:01:36;;;;;;;9.23;2.70;;;17.50;99.90;;;;;;5060131;28;20041;-77
2022/08/05 06:04:02;;;;;;;3.13;2.13;;;17.40;99.90;;;;;;5064508;28;20608;-79
2022/08/05 06:06:29;;;;;;;5.47;1.98;;;17.40;99.90;;;;;;5060967;28;20098;-80
2022/08/05 06:08:54;;;;;;;6.03;2.65;;;17.40;99.90;;;;;;5046647;28;20048;-80
2022/08/05 06:11:20;;;;;;;6.50;2.22;;;17.40;99.90;;;;;;5061245;28;20036;-80
2022/08/05 06:13:46;;;;;;;5.30;1.90;;;17.40;99.90;;;;;;5059042;28;20049;-81
2022/08/05 06:16:11;;;;;;;6.53;2.17;;;17.40;99.90;;;;;;5057156;28;20492;-80
2022/08/05 06:18:37;;;;;;;5.43;2.17;;;17.40;99.90;;;;;;5060953;28;21069;-80
2022/08/05 06:21:03;;;;;;;3.35;1.88;;;17.30;99.90;;;;;;5062221;28;20091;-80
2022/08/05 06:23:30;;;;;;;7.07;2.30;;;17.30;99.90;;;;;;5057240;28;20243;-79
2022/08/05 06:25:56;;;;;;;8.20;2.58;;;17.30;99.90;;;;;;5060927;28;20868;-80
2022/08/05 06:28:22;;;;;;;7.78;2.35;;;17.40;99.90;;;;;;5061080;28;20102;-79
2022/08/05 06:30:48;;;;;;;7.90;2.15;;;17.40;99.90;;;;;;5061449;28;20037;-79
2022/08/05 06:33:13;;;;;;;4.90;2.05;;;17.40;99.90;;;;;;5061387;28;20051;-79
2022/08/05 06:35:39;;;;;;;3.42;2.10;;;17.40;99.90;;;;;;5060972;28;20400;-79
2022/08/05 06:38:05;;;;;;;6.68;2.28;;;17.40;99.90;;;;;;5062871;28;20040;-79
2022/08/05 06:40:31;;;;;;;8.05;2.53;;;17.40;99.90;;;;;;5063123;28;20048;-79
2022/08/05 06:42:56;;;;;;;5.13;2.10;;;17.40;99.90;;;;;;5064394;28;20195;-79
2022/08/05 06:45:22;;;;;;;7.97;2.75;;;17.50;99.90;;;;;;5061776;28;20043;-78
2022/08/05 06:47:48;;;;;;;7.97;2.00;;;17.40;99.90;;;;;;5062703;28;20534;-79
2022/08/05 06:50:14;;;;;;;8.00;3.10;;;17.40;99.90;;;;;;5060715;28;20029;-79
2022/08/05 06:52:39;;;;;;;6.60;2.45;;;17.50;99.90;;;;;;5061096;28;20769;-79
2022/08/05 06:55:06;;;;;;;10.85;2.05;;;17.50;99.90;;;;;;5062237;28;20592;-79
2022/08/05 06:57:31;;;;;;;5.80;2.20;;;17.50;99.90;;;;;;5058682;28;20049;-79
2022/08/05 06:59:57;;;;;;;4.97;1.88;;;17.50;99.90;;;;;;5060052;28;20627;-79
2022/08/05 07:02:23;;;;;;;3.38;2.05;;;17.50;99.90;;;;;;5061612;28;20040;-79
2022/08/05 07:04:49;;;;;;;7.50;2.03;;;17.50;99.90;;;;;;5063625;28;20040;-79
2022/08/05 07:07:14;;;;;;;4.50;2.10;;;17.50;99.90;;;;;;5055485;28;20087;-79
2022/08/05 07:09:40;;;;;;;5.63;1.85;;;17.50;99.90;;;;;;5058771;28;20053;-78
2022/08/05 07:12:07;;;;;;;5.88;3.78;;;17.50;99.90;;;;;;5059943;28;20040;-79
2022/08/05 07:17:17;;;;;;;7.32;2.38;;;17.50;99.90;;;;;;5061749;28;20118;-79
2022/08/05 07:19:43;;;;;;;3.45;2.22;;;17.50;99.90;;;;;;5060906;28;20033;-78
2022/08/05 07:22:08;;;;;;;3.83;1.90;;;17.50;99.90;;;;;;5058148;28;20541;-78
2022/08/05 07:24:34;;;;;;;7.55;2.90;;;17.60;99.90;;;;;;5057192;28;20111;-78
2022/08/05 07:27:00;;;;;;;6.15;1.98;;;17.60;99.90;;;;;;5076958;28;20091;-78
2022/08/05 07:29:26;;;;;;;4.10;2.30;;;17.60;99.90;;;;;;5056294;28;20890;-79
2022/08/05 07:31:51;;;;;;;6.50;2.47;;;17.60;99.90;;;;;;5062175;28;20037;-79
2022/08/05 07:34:17;;;;;;;6.38;2.47;;;17.60;99.90;;;;;;5063508;28;20045;-78
2022/08/05 07:36:43;;;;;;;6.68;2.28;;;17.70;99.90;;;;;;5065120;28;20040;-78
2022/08/05 07:39:09;;;;;;;6.45;2.35;;;17.70;99.90;;;;;;5064828;28;20523;-78
2022/08/05 07:41:35;;;;;;;5.85;1.83;;;17.70;99.90;;;;;;5065769;28;20054;-79
2022/08/05 07:44:03;;;;;;;8.70;3.38;;;17.70;99.90;;;;;;5065578;28;20045;-78
2022/08/05 07:46:30;;;;;;;7.68;2.78;;;17.70;99.90;;;;;;5081773;28;20152;-78
2022/08/05 07:48:57;;;;;;;5.97;3.25;;;17.80;99.90;;;;;;5065696;28;20068;-78
2022/08/05 07:51:23;;;;;;;7.03;2.38;;;17.80;99.90;;;;;;5065633;28;20522;-78
2022/08/05 07:53:49;;;;;;;3.78;2.90;;;17.80;99.90;;;;;;5061883;28;20040;-78
2022/08/05 07:56:14;;;;;;;5.15;2.38;;;17.80;99.90;;;;;;5056621;28;20044;-79
2022/08/05 07:58:40;;;;;;;3.90;2.20;;;17.90;99.90;;;;;;5046607;28;20045;-77
2022/08/05 08:01:06;;;;;;;12.63;3.15;;;17.90;99.90;;;;;;5058778;28;20521;-77
2022/08/05 08:03:32;;;;;;;6.97;2.47;;;17.90;99.90;;;;;;5059476;28;20116;-78
2022/08/05 08:05:57;;;;;;;6.85;2.70;;;18.00;99.90;;;;;;5060641;28;20498;-78
2022/08/05 08:08:23;;;;;;;5.15;2.45;;;18.00;99.90;;;;;;5061613;28;20061;-78
2022/08/05 08:10:49;;;;;;;6.25;3.38;;;18.00;99.90;;;;;;5059486;28;20033;-77
2022/08/05 08:13:15;;;;;;;5.30;2.63;;;18.10;99.90;;;;;;5055871;28;20079;-78
2022/08/05 08:15:41;;;;;;;4.32;2.33;;;18.10;99.90;;;;;;5041958;28;20037;-77
2022/08/05 08:18:08;;;;;;;10.20;2.40;;;18.20;99.90;;;;;;5059934;28;20506;-78
2022/08/05 08:20:33;;;;;;;5.80;2.60;;;18.20;99.90;;;;;;5058080;28;20045;-78
2022/08/05 08:23:01;;;;;;;3.63;1.90;;;18.30;99.90;;;;;;5057723;28;20044;-77
2022/08/05 08:25:27;;;;;;;5.05;2.47;;;18.30;99.90;;;;;;5057822;28;20504;-80
2022/08/05 08:27:54;;;;;;;4.35;2.53;;;18.30;99.90;;;;;;5059411;28;20045;-78
2022/08/05 08:30:20;;;;;;;9.05;3.35;;;18.40;99.90;;;;;;5057774;28;20042;-78
2022/08/05 08:32:46;;;;;;;4.88;2.35;;;18.40;99.90;;;;;;5060634;28;20052;-78
2022/08/05 08:35:11;;;;;;;9.07;3.33;;;18.40;99.90;;;;;;5059753;28;20045;-77
2022/08/05 08:37:37;;;;;;;2.80;1.92;;;18.50;99.90;;;;;;5059021;28;20423;-76
2022/08/05 08:40:04;;;;;;;8.27;2.88;;;18.50;99.90;;;;;;5060924;28;20089;-77
2022/08/05 08:42:31;;;;;;;8.77;2.80;;;18.60;99.90;;;;;;5060659;28;20570;-78
2022/08/05 08:44:57;;;;;;;5.68;2.35;;;18.60;99.90;;;;;;5063201;28;20400;-78
2022/08/05 08:47:25;;;;;;;6.55;2.55;;;18.60;99.90;;;;;;5047879;28;20033;-78
2022/08/05 08:49:55;;;;;;;6.18;3.33;;;18.70;99.90;;;;;;5062868;28;20414;-77
2022/08/05 08:52:30;;;;;;;11.15;3.40;;;18.70;99.90;;;;;;5077458;28;20080;-78
2022/08/05 08:54:56;;;;;;;8.68;2.90;;;18.80;99.90;;;;;;5062278;28;20028;-78
2022/08/05 08:57:22;;;;;;;5.28;3.03;;;18.80;99.90;;;;;;5060165;28;20052;-78
2022/08/05 08:59:49;;;;;;;12.35;3.65;;;18.80;99.90;;;;;;5063072;28;20146;-78
2022/08/05 09:02:17;;;;;;;8.88;2.70;;;18.80;99.90;;;;;;5080872;28;20534;-78
2022/08/05 09:04:44;;;;;;;5.72;3.03;;;18.90;99.90;;;;;;5081659;28;20048;-78
2022/08/05 09:07:10;;;;;;;8.57;3.70;;;18.90;99.90;;;;;;5076119;28;20584;-78
2022/08/05 09:09:37;;;;;;;5.22;2.75;;;18.90;99.90;;;;;;5063972;28;20052;-79
2022/08/05 09:12:04;;;;;;;7.53;2.63;;;19.00;99.90;;;;;;5063723;28;20048;-78
2022/08/05 09:14:34;;;;;;;2.65;1.92;;;19.00;99.90;;;;;;5061856;28;20041;-79
2022/08/05 09:17:01;;;;;;;8.93;3.08;;;19.10;99.90;;;;;;5064220;28;20043;-78
2022/08/05 09:19:27;;;;;;;6.53;3.67;;;19.20;99.90;;;;;;5063913;28;20183;-79
2022/08/05 09:21:53;;;;;;;9.00;3.90;;;19.30;99.90;;;;;;5065512;28;20451;-79
2022/08/05 09:24:18;;;;;;;5.72;2.88;;;19.50;99.90;;;;;;5069085;28;20040;-78
2022/08/05 09:26:52;;;;;;;18.85;13.68;;;19.60;99.90;;;;;;5065408;28;20048;-78
2022/08/05 09:29:18;;;;;;;67.03;45.20;;;19.60;99.90;;;;;;5068773;28;20049;-78
2022/08/05 09:32:01;;;;;;;11.80;6.55;;;19.60;99.90;;;;;;5064730;28;20037;-79
2022/08/05 09:34:48;;;;;;;11.52;4.63;;;19.50;99.90;;;;;;5066851;28;20599;-77
2022/08/05 09:37:24;;;;;;;6.97;2.55;;;19.50;99.90;;;;;;5069734;28;20044;-78
2022/08/05 09:39:50;;;;;;;4.75;2.72;;;19.50;99.90;;;;;;5074336;28;20046;-78
2022/08/05 09:42:18;;;;;;;5.47;2.35;;;19.50;99.90;;;;;;5059111;28;20044;-78
2022/08/05 09:44:46;;;;;;;6.20;3.30;;;19.50;99.90;;;;;;5057297;28;20037;-77
2022/08/05 09:47:30;;;;;;;7.85;3.25;;;19.60;99.90;;;;;;5063345;28;20526;-77
2022/08/05 09:49:56;;;;;;;8.95;3.00;;;19.70;99.90;;;;;;5065863;28;20582;-79
2022/08/05 09:52:28;;;;;;;6.93;2.67;;;19.70;99.90;;;;;;5079594;28;20053;-77
2022/08/05 09:55:06;;;;;;;12.18;4.38;;;19.70;99.90;;;;;;5060372;28;20117;-80
2022/08/05 09:57:38;;;;;;;7.28;2.90;;;19.70;99.90;;;;;;5063151;28;20049;-77
2022/08/05 10:00:13;;;;;;;9.65;4.65;;;19.70;99.90;;;;;;5069478;28;20041;-82
2022/08/05 10:02:42;;;;;;;7.65;3.63;;;19.70;99.90;;;;;;5067088;28;20117;-77
2022/08/05 10:05:11;;;;;;;4.88;2.47;;;19.70;99.90;;;;;;5067297;28;20665;-79
2022/08/05 10:08:00;;;;;;;5.82;3.10;;;19.80;99.90;;;;;;5100206;27;20036;-80
2022/08/05 10:10:35;;;;;;;11.70;3.88;;;19.80;99.90;;;;;;5066417;28;20045;-81
2022/08/05 10:13:02;;;;;;;7.00;2.40;;;19.90;99.90;;;;;;5094591;27;20049;-79
2022/08/05 10:15:48;;;;;;;4.38;2.58;;;20.00;99.90;;;;;;5093933;27;20041;-79
2022/08/05 10:18:15;;;;;;;8.18;3.15;;;20.20;99.90;;;;;;5061975;28;20086;-79
2022/08/05 10:21:03;;;;;;;10.02;2.92;;;20.30;99.90;;;;;;5063575;28;20037;-79
2022/08/05 10:23:35;;;;;;;9.63;3.22;;;20.40;99.90;;;;;;5063972;28;20048;-79
2022/08/05 10:26:04;;;;;;;7.13;2.53;;;20.40;99.90;;;;;;5060578;28;20307;-74
2022/08/05 10:28:30;;;;;;;8.07;2.92;;;20.60;99.90;;;;;;5065234;28;20095;-74
2022/08/05 10:30:57;;;;;;;8.35;2.80;;;20.60;99.90;;;;;;5065476;28;20064;-74
2022/08/05 10:33:26;;;;;;;9.63;3.63;;;20.50;99.90;;;;;;5065593;28;20103;-75
2022/08/05 10:35:53;;;;;;;11.43;3.47;;;20.40;99.90;;;;;;5065985;28;20079;-74
2022/08/05 10:38:22;;;;;;;4.68;2.58;;;20.40;99.90;;;;;;5063731;28;20094;-74
2022/08/05 10:40:50;;;;;;;4.93;2.88;;;20.40;99.90;;;;;;5064381;28;20041;-74
2022/08/05 10:43:28;;;;;;;7.18;2.75;;;20.40;99.90;;;;;;5091665;27;20070;-75
2022/08/05 10:46:06;;;;;;;6.13;3.50;;;20.40;99.90;;;;;;5064191;28;20067;-74
2022/08/05 10:48:43;;;;;;;6.22;3.28;;;20.50;99.90;;;;;;5063846;28;20048;-74
2022/08/05 10:51:09;;;;;;;7.10;3.10;;;20.50;99.90;;;;;;5064779;28;20514;-74
2022/08/05 10:53:38;;;;;;;6.43;3.33;;;20.50;99.90;;;;;;5065867;28;20044;-75
2022/08/05 10:56:07;;;;;;;7.03;3.25;;;20.60;99.90;;;;;;5078640;28;20044;-74
2022/08/05 10:58:34;;;;;;;5.35;3.25;;;20.70;99.90;;;;;;5095881;27;20044;-74
2022/08/05 11:01:05;;;;;;;18.08;8.35;;;20.70;99.90;;;;;;5062920;28;20071;-75
2022/08/05 11:03:32;;;;;;;6.43;3.00;;;20.70;99.90;;;;;;5064713;28;20092;-74
2022/08/05 11:06:11;;;;;;;9.10;3.70;;;20.80;99.90;;;;;;5064184;28;20118;-75
2022/08/05 11:08:36;;;;;;;11.68;6.00;;;20.90;99.90;;;;;;5097101;27;20059;-75
2022/08/05 11:11:33;;;;;;;5.57;2.78;;;20.90;99.90;;;;;;5064076;28;20047;-74
2022/08/05 11:14:00;;;;;;;7.00;2.78;;;20.90;99.90;;;;;;5065253;28;20033;-75
2022/08/05 11:16:26;;;;;;;7.32;3.25;;;21.00;99.90;;;;;;5063819;28;20041;-74
2022/08/05 11:19:27;;;;;;;8.70;3.00;;;21.00;99.90;;;;;;5064956;28;20045;-75
2022/08/05 11:21:55;;;;;;;6.07;2.70;;;21.10;99.90;;;;;;5058136;28;20122;-76
2022/08/05 11:24:22;;;;;;;9.77;3.95;;;21.10;99.90;;;;;;5062894;28;20045;-78
2022/08/05 11:26:49;;;;;;;15.27;6.70;;;21.10;99.90;;;;;;5056260;28;20518;-74
2022/08/05 11:29:35;;;;;;;6.40;3.05;;;21.10;99.90;;;;;;5058813;28;20045;-75
2022/08/05 11:32:33;;;;;;;6.95;3.20;;;21.20;99.90;;;;;;5060446;28;20045;-75
2022/08/05 11:34:59;;;;;;;5.28;2.08;;;21.10;99.90;;;;;;5042142;28;20045;-75
2022/08/05 11:37:42;;;;;;;4.72;1.92;;;21.10;99.90;;;;;;5062369;28;20534;-75
2022/08/05 11:40:07;;;;;;;5.63;2.95;;;21.20;99.90;;;;;;5077559;28;20045;-76
2022/08/05 11:42:34;;;;;;;7.45;2.60;;;21.20;99.90;;;;;;5047746;28;20045;-75
2022/08/05 11:45:06;;;;;;;7.80;2.60;;;21.20;99.90;;;;;;5063519;28;20529;-75
2022/08/05 11:47:34;;;;;;;4.60;2.05;;;21.10;99.90;;;;;;5063398;28;20090;-75
2022/08/05 11:50:02;;;;;;;7.43;2.55;;;21.20;99.90;;;;;;5061608;28;20548;-75
2022/08/05 11:52:28;;;;;;;4.78;2.47;;;21.20;99.90;;;;;;5060839;28;20094;-75
2022/08/05 11:54:55;;;;;;;7.28;2.72;;;21.30;99.90;;;;;;5063966;28;20600;-75
2022/08/05 11:57:26;;;;;;;7.00;2.13;;;21.50;99.90;;;;;;5096660;27;20037;-75
2022/08/05 11:59:52;;;;;;;4.90;1.75;;;21.60;99.90;;;;;;5057973;28;20040;-74
2022/08/05 12:02:24;;;;;;;4.22;2.10;;;21.70;99.90;;;;;;5064072;28;20057;-74
2022/08/05 12:04:49;;;;;;;;;;;21.70;99.90;;;;;;5063775;28;20913;-74
2022/08/05 12:07:16;;;;;;;8.23;2.88;;;21.70;99.90;;;;;;5064080;28;19921;-74
2022/08/05 12:09:47;;;;;;;4.20;2.17;;;21.70;99.90;;;;;;5061398;28;20055;-74
2022/08/05 12:12:21;;;;;;;5.90;2.27;;;21.60;99.90;;;;;;5065062;28;20043;-74
2022/08/05 12:14:46;;;;;;;4.82;2.10;;;21.60;99.90;;;;;;5063087;28;20059;-74
2022/08/05 12:17:14;;;;;;;4.60;2.45;;;21.80;99.90;;;;;;5061915;28;20041;-74
2022/08/05 12:19:51;;;;;;;4.53;2.03;;;22.00;99.90;;;;;;5062472;28;20164;-74
2022/08/05 12:22:19;;;;;;;3.33;1.60;;;22.10;99.90;;;;;;5064013;28;20079;-75
2022/08/05 12:24:50;;;;;;;7.35;1.83;;;21.90;99.90;;;;;;5064647;28;20052;-75
2022/08/05 12:27:23;;;;;;;4.60;2.47;;;21.80;99.90;;;;;;5065369;28;20532;-74
2022/08/05 12:30:09;;;;;;;4.97;2.05;;;21.70;99.90;;;;;;5064559;28;20049;-74
2022/08/05 12:32:44;;;;;;;5.82;2.08;;;21.80;99.90;;;;;;5080560;28;20111;-74
2022/08/05 12:35:14;;;;;;;4.57;2.05;;;21.80;99.90;;;;;;5061423;28;20522;-75
2022/08/05 12:37:40;;;;;;;3.42;1.80;;;21.80;99.90;;;;;;5064022;28;20060;-74
2022/08/05 12:40:09;;;;;;;6.38;1.80;;;21.90;99.90;;;;;;5063665;28;20036;-74
2022/08/05 12:42:35;;;;;;;4.20;1.75;;;21.80;99.90;;;;;;5046797;28;20060;-74
2022/08/05 12:45:10;;;;;;;4.72;2.17;;;21.90;99.90;;;;;;5063147;28;20045;-74
2022/08/05 12:47:37;;;;;;;5.68;2.25;;;21.90;99.90;;;;;;5064912;28;20539;-74
2022/08/05 12:50:13;;;;;;;7.72;2.40;;;22.00;99.90;;;;;;5061321;28;20485;-74
2022/08/05 12:52:39;;;;;;;1.80;1.30;;;22.10;99.90;;;;;;5061025;28;20048;-74
2022/08/05 12:55:26;;;;;;;4.63;1.50;;;22.10;99.90;;;;;;5063415;28;20161;-74
2022/08/05 12:57:53;;;;;;;4.22;2.08;;;22.10;99.90;;;;;;5064292;28;20125;-74